sensor_id;sensor_type;location;lat;lon;timestamp;P1;durP1;ratioP1;P2;durP2;ratioP2
13114;SDS011;6623;52.120;8.660;2022-08-19T00:11:30;11.77;;;5.97;;
13114;SDS011;6623;52.120;8.660;2022-08-19T00:13:57;14.70;;;6.27;;
13114;SDS011;6623;52.120;8.660;2022-08-19T00:16:24;9.23;;;6.30;;
13114;SDS011;6623;52.120;8.660;2022-08-19T00:18:59;10.07;;;6.40;;
13114;SDS011;6623;52.120;8.660;2022-08-19T00:21:37;11.90;;;7.17;;
13114;SDS011;6623;52.120;8.660;2022-08-19T00:27:08;12.27;;;7.30;;
13114;SDS011;6623;52.120;8.660;2022-08-19T00:29:34;11.47;;;6.13;;
13114;SDS011;6623;52.120;8.660;2022-08-19T00:39:59;9.43;;;6.93;;
13114;SDS011;6623;52.120;8.660;2022-08-19T00:42:36;11.87;;;7.03;;
13114;SDS011;6623;52.120;8.660;2022-08-19T00:45:10;10.83;;;6.90;;
13114;SDS011;6623;52.120;8.660;2022-08-19T00:47:45;10.40;;;7.13;;
13114;SDS011;6623;52.120;8.660;2022-08-19T00:53:35;13.03;;;7.13;;
13114;SDS011;6623;52.120;8.660;2022-08-19T00:56:23;8.87;;;6.00;;
13114;SDS011;6623;52.120;8.660;2022-08-19T00:58:49;17.50;;;7.30;;
13114;SDS011;6623;52.120;8.660;2022-08-19T01:01:16;10.63;;;7.00;;
13114;SDS011;6623;52.120;8.660;2022-08-19T01:03:51;10.70;;;6.90;;
13114;SDS011;6623;52.120;8.660;2022-08-19T01:06:17;12.57;;;7.47;;
13114;SDS011;6623;52.120;8.660;2022-08-19T01:08:43;14.43;;;7.40;;
13114;SDS011;6623;52.120;8.660;2022-08-19T01:13:57;10.00;;;6.90;;
13114;SDS011;6623;52.120;8.660;2022-08-19T01:19:11;11.40;;;6.27;;
13114;SDS011;6623;52.120;8.660;2022-08-19T01:21:43;10.20;;;6.37;;
13114;SDS011;6623;52.120;8.660;2022-08-19T01:24:14;13.77;;;8.27;;
13114;SDS011;6623;52.120;8.660;2022-08-19T01:26:41;14.57;;;8.17;;
13114;SDS011;6623;52.120;8.660;2022-08-19T01:29:13;12.93;;;8.03;;
13114;SDS011;6623;52.120;8.660;2022-08-19T01:31:40;13.57;;;8.30;;
13114;SDS011;6623;52.120;8.660;2022-08-19T01:34:09;14.50;;;8.50;;
13114;SDS011;6623;52.120;8.660;2022-08-19T01:36:37;10.87;;;7.47;;
13114;SDS011;6623;52.120;8.660;2022-08-19T01:39:08;11.93;;;7.30;;
13114;SDS011;6623;52.120;8.660;2022-08-19T01:41:43;16.87;;;7.90;;
13114;SDS011;6623;52.120;8.660;2022-08-19T01:47:24;12.73;;;8.17;;
13114;SDS011;6623;52.120;8.660;2022-08-19T01:53:13;11.37;;;7.67;;
13114;SDS011;6623;52.120;8.660;2022-08-19T02:10:13;12.30;;;8.43;;
13114;SDS011;6623;52.120;8.660;2022-08-19T02:12:49;16.67;;;8.60;;
13114;SDS011;6623;52.120;8.660;2022-08-19T02:15:19;12.73;;;9.30;;
13114;SDS011;6623;52.120;8.660;2022-08-19T02:17:48;11.80;;;8.07;;
13114;SDS011;6623;52.120;8.660;2022-08-19T02:20:14;14.87;;;9.37;;
13114;SDS011;6623;52.120;8.660;2022-08-19T02:22:41;15.50;;;9.77;;
13114;SDS011;6623;52.120;8.660;2022-08-19T02:25:08;17.37;;;9.63;;
13114;SDS011;6623;52.120;8.660;2022-08-19T02:30:27;16.40;;;9.50;;
13114;SDS011;6623;52.120;8.660;2022-08-19T02:32:59;14.10;;;9.67;;
13114;SDS011;6623;52.120;8.660;2022-08-19T02:35:25;12.80;;;9.00;;
13114;SDS011;6623;52.120;8.660;2022-08-19T02:37:51;15.73;;;9.57;;
13114;SDS011;6623;52.120;8.660;2022-08-19T02:40:37;17.77;;;10.03;;
13114;SDS011;6623;52.120;8.660;2022-08-19T02:43:07;13.67;;;10.37;;
13114;SDS011;6623;52.120;8.660;2022-08-19T02:45:34;14.77;;;9.43;;
13114;SDS011;6623;52.120;8.660;2022-08-19T02:48:00;12.63;;;9.27;;
13114;SDS011;6623;52.120;8.660;2022-08-19T02:50:36;11.33;;;8.63;;
13114;SDS011;6623;52.120;8.660;2022-08-19T02:53:02;17.50;;;9.07;;
13114;SDS011;6623;52.120;8.660;2022-08-19T02:55:47;12.80;;;8.63;;
13114;SDS011;6623;52.120;8.660;2022-08-19T02:58:20;12.30;;;9.07;;
13114;SDS011;6623;52.120;8.660;2022-08-19T03:01:04;15.27;;;9.30;;
13114;SDS011;6623;52.120;8.660;2022-08-19T03:03:33;17.53;;;10.87;;
13114;SDS011;6623;52.120;8.660;2022-08-19T03:08:59;18.47;;;10.63;;
13114;SDS011;6623;52.120;8.660;2022-08-19T03:11:29;15.93;;;11.00;;
13114;SDS011;6623;52.120;8.660;2022-08-19T03:20:14;14.70;;;9.67;;
13114;SDS011;6623;52.120;8.660;2022-08-19T03:25:13;11.67;;;9.77;;
13114;SDS011;6623;52.120;8.660;2022-08-19T03:27:52;16.27;;;9.50;;
13114;SDS011;6623;52.120;8.660;2022-08-19T03:33:26;13.60;;;9.30;;
13114;SDS011;6623;52.120;8.660;2022-08-19T03:53:17;14.73;;;9.50;;
13114;SDS011;6623;52.120;8.660;2022-08-19T03:55:55;18.00;;;11.13;;
13114;SDS011;6623;52.120;8.660;2022-08-19T03:58:43;16.73;;;11.10;;
13114;SDS011;6623;52.120;8.660;2022-08-19T04:01:22;15.70;;;11.30;;
13114;SDS011;6623;52.120;8.660;2022-08-19T04:03:49;14.90;;;11.23;;
13114;SDS011;6623;52.120;8.660;2022-08-19T04:06:20;14.87;;;10.27;;
13114;SDS011;6623;52.120;8.660;2022-08-19T04:08:50;15.77;;;11.00;;
13114;SDS011;6623;52.120;8.660;2022-08-19T04:11:22;15.47;;;11.57;;
13114;SDS011;6623;52.120;8.660;2022-08-19T04:13:55;14.80;;;11.33;;
13114;SDS011;6623;52.120;8.660;2022-08-19T04:19:15;19.07;;;11.77;;
13114;SDS011;6623;52.120;8.660;2022-08-19T04:21:57;19.40;;;12.07;;
13114;SDS011;6623;52.120;8.660;2022-08-19T04:24:29;14.67;;;11.07;;
13114;SDS011;6623;52.120;8.660;2022-08-19T04:26:59;17.30;;;12.20;;
13114;SDS011;6623;52.120;8.660;2022-08-19T04:35:18;18.77;;;11.30;;
13114;SDS011;6623;52.120;8.660;2022-08-19T04:37:58;16.10;;;11.47;;
13114;SDS011;6623;52.120;8.660;2022-08-19T04:40:24;16.93;;;10.87;;
13114;SDS011;6623;52.120;8.660;2022-08-19T04:48:23;16.13;;;10.83;;
13114;SDS011;6623;52.120;8.660;2022-08-19T04:51:13;17.30;;;11.07;;
13114;SDS011;6623;52.120;8.660;2022-08-19T04:53:51;21.47;;;11.27;;
13114;SDS011;6623;52.120;8.660;2022-08-19T04:56:23;16.23;;;11.47;;
13114;SDS011;6623;52.120;8.660;2022-08-19T04:59:00;18.67;;;12.13;;
13114;SDS011;6623;52.120;8.660;2022-08-19T05:01:37;16.53;;;11.13;;
13114;SDS011;6623;52.120;8.660;2022-08-19T05:06:50;17.93;;;11.63;;
13114;SDS011;6623;52.120;8.660;2022-08-19T05:12:09;16.07;;;11.90;;
13114;SDS011;6623;52.120;8.660;2022-08-19T05:14:35;17.43;;;12.00;;
13114;SDS011;6623;52.120;8.660;2022-08-19T05:17:01;18.80;;;11.90;;
13114;SDS011;6623;52.120;8.660;2022-08-19T05:19:39;16.63;;;12.30;;
13114;SDS011;6623;52.120;8.660;2022-08-19T05:22:43;22.00;;;12.73;;
13114;SDS011;6623;52.120;8.660;2022-08-19T05:25:14;15.70;;;11.30;;
13114;SDS011;6623;52.120;8.660;2022-08-19T05:27:41;16.37;;;11.73;;
13114;SDS011;6623;52.120;8.660;2022-08-19T05:30:07;15.50;;;11.70;;
13114;SDS011;6623;52.120;8.660;2022-08-19T05:32:52;17.43;;;11.90;;
13114;SDS011;6623;52.120;8.660;2022-08-19T05:35:24;18.97;;;11.63;;
13114;SDS011;6623;52.120;8.660;2022-08-19T05:37:50;20.07;;;11.40;;
13114;SDS011;6623;52.120;8.660;2022-08-19T05:40:19;20.43;;;11.40;;
13114;SDS011;6623;52.120;8.660;2022-08-19T05:42:45;16.50;;;11.43;;
13114;SDS011;6623;52.120;8.660;2022-08-19T05:45:14;17.53;;;11.27;;
13114;SDS011;6623;52.120;8.660;2022-08-19T05:47:54;18.00;;;11.13;;
13114;SDS011;6623;52.120;8.660;2022-08-19T05:50:26;14.50;;;10.53;;
13114;SDS011;6623;52.120;8.660;2022-08-19T05:53:04;19.60;;;11.90;;
13114;SDS011;6623;52.120;8.660;2022-08-19T05:55:34;17.67;;;12.07;;
13114;SDS011;6623;52.120;8.660;2022-08-19T05:58:06;15.70;;;11.30;;
13114;SDS011;6623;52.120;8.660;2022-08-19T06:01:03;15.27;;;11.13;;
13114;SDS011;6623;52.120;8.660;2022-08-19T06:05:58;14.07;;;11.47;;
13114;SDS011;6623;52.120;8.660;2022-08-19T06:11:39;14.67;;;10.50;;
13114;SDS011;6623;52.120;8.660;2022-08-19T06:14:13;17.63;;;11.63;;
13114;SDS011;6623;52.120;8.660;2022-08-19T06:16:40;25.63;;;10.83;;
13114;SDS011;6623;52.120;8.660;2022-08-19T06:19:30;14.00;;;11.00;;
13114;SDS011;6623;52.120;8.660;2022-08-19T06:22:08;16.70;;;10.83;;
13114;SDS011;6623;52.120;8.660;2022-08-19T06:24:53;15.13;;;10.30;;
13114;SDS011;6623;52.120;8.660;2022-08-19T06:30:18;15.43;;;10.13;;
13114;SDS011;6623;52.120;8.660;2022-08-19T06:32:56;12.87;;;8.77;;
13114;SDS011;6623;52.120;8.660;2022-08-19T06:35:22;11.87;;;7.47;;
13114;SDS011;6623;52.120;8.660;2022-08-19T06:37:58;9.97;;;6.90;;
13114;SDS011;6623;52.120;8.660;2022-08-19T06:40:24;8.77;;;6.67;;
13114;SDS011;6623;52.120;8.660;2022-08-19T06:45:43;7.97;;;5.50;;
13114;SDS011;6623;52.120;8.660;2022-08-19T06:48:09;8.43;;;6.00;;
13114;SDS011;6623;52.120;8.660;2022-08-19T06:50:38;8.13;;;5.87;;
13114;SDS011;6623;52.120;8.660;2022-08-19T06:53:25;7.13;;;5.30;;
13114;SDS011;6623;52.120;8.660;2022-08-19T06:55:53;8.73;;;5.87;;
13114;SDS011;6623;52.120;8.660;2022-08-19T06:58:31;9.00;;;5.50;;
13114;SDS011;6623;52.120;8.660;2022-08-19T07:01:10;7.40;;;5.60;;
13114;SDS011;6623;52.120;8.660;2022-08-19T07:03:48;7.87;;;6.00;;
13114;SDS011;6623;52.120;8.660;2022-08-19T07:06:36;7.40;;;5.47;;
13114;SDS011;6623;52.120;8.660;2022-08-19T07:09:09;7.73;;;5.63;;
13114;SDS011;6623;52.120;8.660;2022-08-19T07:11:35;7.43;;;4.90;;
13114;SDS011;6623;52.120;8.660;2022-08-19T07:14:01;10.53;;;5.97;;
13114;SDS011;6623;52.120;8.660;2022-08-19T07:16:28;9.37;;;5.33;;
13114;SDS011;6623;52.120;8.660;2022-08-19T07:18:54;7.00;;;5.03;;
13114;SDS011;6623;52.120;8.660;2022-08-19T07:21:25;7.53;;;5.30;;
13114;SDS011;6623;52.120;8.660;2022-08-19T07:23:53;7.97;;;5.03;;
13114;SDS011;6623;52.120;8.660;2022-08-19T07:26:26;7.70;;;4.70;;
13114;SDS011;6623;52.120;8.660;2022-08-19T07:28:53;7.40;;;4.40;;
13114;SDS011;6623;52.120;8.660;2022-08-19T07:31:20;6.00;;;4.17;;
13114;SDS011;6623;52.120;8.660;2022-08-19T07:33:49;7.33;;;4.60;;
13114;SDS011;6623;52.120;8.660;2022-08-19T07:36:17;5.47;;;3.83;;
13114;SDS011;6623;52.120;8.660;2022-08-19T07:38:43;5.80;;;4.00;;
13114;SDS011;6623;52.120;8.660;2022-08-19T07:41:14;4.87;;;4.07;;
13114;SDS011;6623;52.120;8.660;2022-08-19T07:43:41;6.17;;;3.67;;
13114;SDS011;6623;52.120;8.660;2022-08-19T07:46:10;6.20;;;3.70;;
13114;SDS011;6623;52.120;8.660;2022-08-19T07:48:38;5.43;;;4.30;;
13114;SDS011;6623;52.120;8.660;2022-08-19T07:51:05;4.50;;;3.80;;
13114;SDS011;6623;52.120;8.660;2022-08-19T07:53:33;5.10;;;3.90;;
13114;SDS011;6623;52.120;8.660;2022-08-19T07:55:59;7.07;;;3.73;;
13114;SDS011;6623;52.120;8.660;2022-08-19T07:58:29;6.27;;;4.20;;
13114;SDS011;6623;52.120;8.660;2022-08-19T08:00:55;7.10;;;3.23;;
13114;SDS011;6623;52.120;8.660;2022-08-19T08:03:22;4.80;;;3.87;;
13114;SDS011;6623;52.120;8.660;2022-08-19T08:06:11;7.97;;;4.10;;
13114;SDS011;6623;52.120;8.660;2022-08-19T08:08:56;7.37;;;4.67;;
13114;SDS011;6623;52.120;8.660;2022-08-19T08:11:57;5.77;;;3.90;;
13114;SDS011;6623;52.120;8.660;2022-08-19T08:14:29;8.77;;;4.07;;
13114;SDS011;6623;52.120;8.660;2022-08-19T08:16:55;10.20;;;4.50;;
13114;SDS011;6623;52.120;8.660;2022-08-19T08:19:27;6.70;;;4.67;;
13114;SDS011;6623;52.120;8.660;2022-08-19T08:21:54;7.10;;;4.90;;
13114;SDS011;6623;52.120;8.660;2022-08-19T08:24:20;9.27;;;4.23;;
13114;SDS011;6623;52.120;8.660;2022-08-19T08:26:47;6.43;;;4.27;;
13114;SDS011;6623;52.120;8.660;2022-08-19T08:29:13;8.10;;;4.70;;
13114;SDS011;6623;52.120;8.660;2022-08-19T08:31:42;5.60;;;5.00;;
13114;SDS011;6623;52.120;8.660;2022-08-19T08:34:09;6.37;;;4.70;;
13114;SDS011;6623;52.120;8.660;2022-08-19T08:36:39;7.93;;;5.20;;
13114;SDS011;6623;52.120;8.660;2022-08-19T08:39:10;6.13;;;4.87;;
13114;SDS011;6623;52.120;8.660;2022-08-19T08:41:58;7.53;;;4.83;;
13114;SDS011;6623;52.120;8.660;2022-08-19T08:47:20;7.67;;;5.57;;
13114;SDS011;6623;52.120;8.660;2022-08-19T08:49:49;7.53;;;3.67;;
13114;SDS011;6623;52.120;8.660;2022-08-19T08:52:23;4.80;;;4.03;;
13114;SDS011;6623;52.120;8.660;2022-08-19T08:54:51;7.43;;;4.00;;
13114;SDS011;6623;52.120;8.660;2022-08-19T08:57:33;8.40;;;4.00;;
13114;SDS011;6623;52.120;8.660;2022-08-19T09:00:02;7.63;;;3.93;;
13114;SDS011;6623;52.120;8.660;2022-08-19T09:02:31;5.60;;;4.13;;
13114;SDS011;6623;52.120;8.660;2022-08-19T09:04:57;11.60;;;4.27;;
13114;SDS011;6623;52.120;8.660;2022-08-19T09:12:51;3.93;;;2.97;;
13114;SDS011;6623;52.120;8.660;2022-08-19T09:15:18;3.93;;;2.50;;
13114;SDS011;6623;52.120;8.660;2022-08-19T09:17:48;4.03;;;2.90;;
13114;SDS011;6623;52.120;8.660;2022-08-19T09:20:19;3.03;;;2.67;;
13114;SDS011;6623;52.120;8.660;2022-08-19T09:22:46;5.73;;;3.03;;
13114;SDS011;6623;52.120;8.660;2022-08-19T09:25:14;3.90;;;3.30;;
13114;SDS011;6623;52.120;8.660;2022-08-19T09:27:41;4.37;;;2.70;;
13114;SDS011;6623;52.120;8.660;2022-08-19T09:30:08;3.70;;;2.63;;
13114;SDS011;6623;52.120;8.660;2022-08-19T09:32:34;3.77;;;3.00;;
13114;SDS011;6623;52.120;8.660;2022-08-19T09:35:01;5.07;;;3.20;;
13114;SDS011;6623;52.120;8.660;2022-08-19T09:37:27;6.30;;;3.00;;
13114;SDS011;6623;52.120;8.660;2022-08-19T09:39:55;3.50;;;2.80;;
13114;SDS011;6623;52.120;8.660;2022-08-19T09:42:21;5.67;;;2.87;;
13114;SDS011;6623;52.120;8.660;2022-08-19T09:44:47;5.30;;;2.80;;
13114;SDS011;6623;52.120;8.660;2022-08-19T09:47:13;4.80;;;2.80;;
13114;SDS011;6623;52.120;8.660;2022-08-19T09:49:40;3.73;;;2.40;;
13114;SDS011;6623;52.120;8.660;2022-08-19T09:52:08;4.53;;;2.23;;
13114;SDS011;6623;52.120;8.660;2022-08-19T09:54:34;4.53;;;2.70;;
13114;SDS011;6623;52.120;8.660;2022-08-19T09:57:00;3.40;;;2.40;;
13114;SDS011;6623;52.120;8.660;2022-08-19T09:59:26;4.43;;;2.67;;
13114;SDS011;6623;52.120;8.660;2022-08-19T10:01:52;6.00;;;2.63;;
13114;SDS011;6623;52.120;8.660;2022-08-19T10:04:19;4.83;;;1.97;;
13114;SDS011;6623;52.120;8.660;2022-08-19T10:06:46;2.70;;;2.13;;
13114;SDS011;6623;52.120;8.660;2022-08-19T10:09:15;3.80;;;2.20;;
13114;SDS011;6623;52.120;8.660;2022-08-19T10:11:42;6.33;;;2.37;;
13114;SDS011;6623;52.120;8.660;2022-08-19T10:14:11;3.97;;;2.43;;
13114;SDS011;6623;52.120;8.660;2022-08-19T10:16:37;3.97;;;2.40;;
13114;SDS011;6623;52.120;8.660;2022-08-19T10:19:04;3.47;;;2.57;;
13114;SDS011;6623;52.120;8.660;2022-08-19T10:21:31;4.27;;;2.30;;
13114;SDS011;6623;52.120;8.660;2022-08-19T10:24:00;5.47;;;2.10;;
13114;SDS011;6623;52.120;8.660;2022-08-19T10:26:29;5.90;;;2.33;;
13114;SDS011;6623;52.120;8.660;2022-08-19T10:28:55;5.10;;;2.23;;
13114;SDS011;6623;52.120;8.660;2022-08-19T10:31:25;3.73;;;2.33;;
13114;SDS011;6623;52.120;8.660;2022-08-19T10:33:51;4.67;;;2.10;;
13114;SDS011;6623;52.120;8.660;2022-08-19T10:36:22;12.40;;;2.30;;
13114;SDS011;6623;52.120;8.660;2022-08-19T10:38:49;2.30;;;2.10;;
13114;SDS011;6623;52.120;8.660;2022-08-19T10:41:17;3.00;;;1.80;;
13114;SDS011;6623;52.120;8.660;2022-08-19T10:43:46;4.67;;;1.90;;
13114;SDS011;6623;52.120;8.660;2022-08-19T10:46:13;2.93;;;2.17;;
13114;SDS011;6623;52.120;8.660;2022-08-19T10:48:40;3.00;;;1.87;;
13114;SDS011;6623;52.120;8.660;2022-08-19T10:51:06;4.20;;;2.10;;
13114;SDS011;6623;52.120;8.660;2022-08-19T10:53:51;2.70;;;2.00;;
13114;SDS011;6623;52.120;8.660;2022-08-19T10:56:27;4.27;;;1.90;;
13114;SDS011;6623;52.120;8.660;2022-08-19T10:59:13;3.77;;;2.10;;
13114;SDS011;6623;52.120;8.660;2022-08-19T11:01:39;4.00;;;2.03;;
13114;SDS011;6623;52.120;8.660;2022-08-19T11:04:06;2.93;;;1.87;;
13114;SDS011;6623;52.120;8.660;2022-08-19T11:06:35;2.90;;;2.00;;
13114;SDS011;6623;52.120;8.660;2022-08-19T11:09:02;3.10;;;1.93;;
13114;SDS011;6623;52.120;8.660;2022-08-19T11:11:29;5.97;;;1.80;;
13114;SDS011;6623;52.120;8.660;2022-08-19T11:13:57;2.30;;;1.50;;
13114;SDS011;6623;52.120;8.660;2022-08-19T11:16:31;3.27;;;1.70;;
13114;SDS011;6623;52.120;8.660;2022-08-19T11:18:58;1.90;;;1.70;;
13114;SDS011;6623;52.120;8.660;2022-08-19T11:21:26;4.43;;;2.00;;
13114;SDS011;6623;52.120;8.660;2022-08-19T11:23:57;2.27;;;1.63;;
13114;SDS011;6623;52.120;8.660;2022-08-19T11:26:27;2.50;;;1.50;;
13114;SDS011;6623;52.120;8.660;2022-08-19T11:28:54;2.57;;;1.70;;
13114;SDS011;6623;52.120;8.660;2022-08-19T11:31:21;5.20;;;1.60;;
13114;SDS011;6623;52.120;8.660;2022-08-19T11:33:48;1.77;;;1.60;;
13114;SDS011;6623;52.120;8.660;2022-08-19T11:36:18;1.60;;;1.30;;
13114;SDS011;6623;52.120;8.660;2022-08-19T11:38:45;1.40;;;1.30;;
13114;SDS011;6623;52.120;8.660;2022-08-19T11:41:14;2.37;;;1.40;;
13114;SDS011;6623;52.120;8.660;2022-08-19T11:43:40;3.50;;;1.40;;
13114;SDS011;6623;52.120;8.660;2022-08-19T11:46:07;3.10;;;1.37;;
13114;SDS011;6623;52.120;8.660;2022-08-19T11:48:33;3.20;;;1.50;;
13114;SDS011;6623;52.120;8.660;2022-08-19T11:51:03;2.73;;;1.27;;
13114;SDS011;6623;52.120;8.660;2022-08-19T11:53:31;2.67;;;1.20;;
13114;SDS011;6623;52.120;8.660;2022-08-19T11:55:57;1.80;;;1.40;;
13114;SDS011;6623;52.120;8.660;2022-08-19T11:58:23;2.40;;;1.23;;
13114;SDS011;6623;52.120;8.660;2022-08-19T12:00:50;3.80;;;1.50;;
13114;SDS011;6623;52.120;8.660;2022-08-19T12:03:16;2.13;;;1.47;;
13114;SDS011;6623;52.120;8.660;2022-08-19T12:05:43;1.57;;;1.40;;
13114;SDS011;6623;52.120;8.660;2022-08-19T12:08:09;1.83;;;1.33;;
13114;SDS011;6623;52.120;8.660;2022-08-19T12:10:37;2.20;;;1.50;;
13114;SDS011;6623;52.120;8.660;2022-08-19T12:13:04;4.47;;;1.70;;
13114;SDS011;6623;52.120;8.660;2022-08-19T12:15:35;2.27;;;1.53;;
13114;SDS011;6623;52.120;8.660;2022-08-19T12:18:01;2.37;;;1.40;;
13114;SDS011;6623;52.120;8.660;2022-08-19T12:20:27;2.35;;;1.33;;
13114;SDS011;6623;52.120;8.660;2022-08-19T12:22:53;2.70;;;1.37;;
13114;SDS011;6623;52.120;8.660;2022-08-19T12:25:19;2.50;;;1.60;;
13114;SDS011;6623;52.120;8.660;2022-08-19T12:27:48;1.77;;;1.60;;
13114;SDS011;6623;52.120;8.660;2022-08-19T12:30:14;4.97;;;1.70;;
13114;SDS011;6623;52.120;8.660;2022-08-19T12:32:40;3.27;;;1.83;;
13114;SDS011;6623;52.120;8.660;2022-08-19T12:35:07;2.77;;;1.50;;
13114;SDS011;6623;52.120;8.660;2022-08-19T12:37:35;2.90;;;1.90;;
13114;SDS011;6623;52.120;8.660;2022-08-19T12:40:01;6.13;;;1.87;;
13114;SDS011;6623;52.120;8.660;2022-08-19T12:42:28;2.23;;;1.70;;
13114;SDS011;6623;52.120;8.660;2022-08-19T12:44:55;2.45;;;1.70;;
13114;SDS011;6623;52.120;8.660;2022-08-19T12:47:21;3.83;;;1.88;;
13114;SDS011;6623;52.120;8.660;2022-08-19T12:49:47;3.38;;;1.50;;
13114;SDS011;6623;52.120;8.660;2022-08-19T12:52:14;2.17;;;1.75;;
13114;SDS011;6623;52.120;8.660;2022-08-19T12:54:41;3.17;;;1.63;;
13114;SDS011;6623;52.120;8.660;2022-08-19T12:57:08;2.75;;;1.67;;
13114;SDS011;6623;52.120;8.660;2022-08-19T12:59:35;1.67;;;1.40;;
13114;SDS011;6623;52.120;8.660;2022-08-19T13:02:01;3.03;;;1.80;;
13114;SDS011;6623;52.120;8.660;2022-08-19T13:04:28;1.90;;;1.63;;
13114;SDS011;6623;52.120;8.660;2022-08-19T13:06:54;2.15;;;1.70;;
13114;SDS011;6623;52.120;8.660;2022-08-19T13:09:20;4.93;;;1.80;;
13114;SDS011;6623;52.120;8.660;2022-08-19T13:11:46;3.25;;;1.48;;
13114;SDS011;6623;52.120;8.660;2022-08-19T13:14:12;3.40;;;1.85;;
13114;SDS011;6623;52.120;8.660;2022-08-19T13:16:38;2.25;;;1.67;;
13114;SDS011;6623;52.120;8.660;2022-08-19T13:19:05;1.98;;;1.70;;
13114;SDS011;6623;52.120;8.660;2022-08-19T13:21:32;2.38;;;1.63;;
13114;SDS011;6623;52.120;8.660;2022-08-19T13:23:58;3.53;;;1.88;;
13114;SDS011;6623;52.120;8.660;2022-08-19T13:26:24;4.32;;;2.00;;
13114;SDS011;6623;52.120;8.660;2022-08-19T13:28:50;2.33;;;1.63;;
13114;SDS011;6623;52.120;8.660;2022-08-19T13:31:35;2.25;;;1.70;;
13114;SDS011;6623;52.120;8.660;2022-08-19T13:34:26;2.33;;;1.60;;
13114;SDS011;6623;52.120;8.660;2022-08-19T13:36:52;2.53;;;1.48;;
13114;SDS011;6623;52.120;8.660;2022-08-19T13:39:19;4.15;;;1.60;;
13114;SDS011;6623;52.120;8.660;2022-08-19T13:41:45;3.90;;;1.80;;
13114;SDS011;6623;52.120;8.660;2022-08-19T13:44:15;3.53;;;1.63;;
13114;SDS011;6623;52.120;8.660;2022-08-19T13:46:48;3.75;;;2.00;;
13114;SDS011;6623;52.120;8.660;2022-08-19T13:49:18;2.13;;;1.77;;
13114;SDS011;6623;52.120;8.660;2022-08-19T13:51:45;3.58;;;1.73;;
13114;SDS011;6623;52.120;8.660;2022-08-19T13:54:11;3.45;;;1.83;;
13114;SDS011;6623;52.120;8.660;2022-08-19T13:56:42;4.88;;;1.70;;
13114;SDS011;6623;52.120;8.660;2022-08-19T13:59:08;1.60;;;1.48;;
13114;SDS011;6623;52.120;8.660;2022-08-19T14:01:34;4.72;;;1.67;;
13114;SDS011;6623;52.120;8.660;2022-08-19T14:04:01;4.38;;;1.80;;
13114;SDS011;6623;52.120;8.660;2022-08-19T14:06:26;1.92;;;1.50;;
13114;SDS011;6623;52.120;8.660;2022-08-19T14:08:52;4.95;;;1.75;;
13114;SDS011;6623;52.120;8.660;2022-08-19T14:11:18;1.58;;;1.45;;
13114;SDS011;6623;52.120;8.660;2022-08-19T14:13:44;2.30;;;1.70;;
13114;SDS011;6623;52.120;8.660;2022-08-19T14:16:12;3.83;;;1.90;;
13114;SDS011;6623;52.120;8.660;2022-08-19T14:18:38;3.33;;;1.70;;
13114;SDS011;6623;52.120;8.660;2022-08-19T14:21:04;3.55;;;1.92;;
13114;SDS011;6623;52.120;8.660;2022-08-19T14:23:31;1.98;;;1.52;;
13114;SDS011;6623;52.120;8.660;2022-08-19T14:28:50;3.20;;;1.67;;
13114;SDS011;6623;52.120;8.660;2022-08-19T14:31:17;2.10;;;1.67;;
13114;SDS011;6623;52.120;8.660;2022-08-19T14:33:45;1.70;;;1.60;;
13114;SDS011;6623;52.120;8.660;2022-08-19T14:36:12;2.50;;;1.73;;
13114;SDS011;6623;52.120;8.660;2022-08-19T14:38:38;5.05;;;1.50;;
13114;SDS011;6623;52.120;8.660;2022-08-19T14:41:08;3.17;;;1.75;;
13114;SDS011;6623;52.120;8.660;2022-08-19T14:43:35;3.90;;;1.80;;
13114;SDS011;6623;52.120;8.660;2022-08-19T14:46:01;4.25;;;1.77;;
13114;SDS011;6623;52.120;8.660;2022-08-19T14:48:27;2.53;;;1.60;;
13114;SDS011;6623;52.120;8.660;2022-08-19T14:50:53;4.20;;;1.80;;
13114;SDS011;6623;52.120;8.660;2022-08-19T14:53:19;2.40;;;1.63;;
13114;SDS011;6623;52.120;8.660;2022-08-19T14:55:45;1.88;;;1.63;;
13114;SDS011;6623;52.120;8.660;2022-08-19T14:58:11;2.78;;;1.80;;
13114;SDS011;6623;52.120;8.660;2022-08-19T15:00:38;2.58;;;1.70;;
13114;SDS011;6623;52.120;8.660;2022-08-19T15:03:04;2.67;;;1.75;;
13114;SDS011;6623;52.120;8.660;2022-08-19T15:05:30;2.92;;;1.70;;
13114;SDS011;6623;52.120;8.660;2022-08-19T15:07:56;6.13;;;1.85;;
13114;SDS011;6623;52.120;8.660;2022-08-19T15:10:23;2.03;;;1.60;;
13114;SDS011;6623;52.120;8.660;2022-08-19T15:12:50;3.10;;;1.83;;
13114;SDS011;6623;52.120;8.660;2022-08-19T15:15:17;4.88;;;1.83;;
13114;SDS011;6623;52.120;8.660;2022-08-19T15:17:46;4.80;;;1.70;;
13114;SDS011;6623;52.120;8.660;2022-08-19T15:20:13;3.65;;;2.00;;
13114;SDS011;6623;52.120;8.660;2022-08-19T15:22:39;2.63;;;1.90;;
13114;SDS011;6623;52.120;8.660;2022-08-19T15:25:06;2.45;;;1.55;;
13114;SDS011;6623;52.120;8.660;2022-08-19T15:27:33;2.28;;;1.80;;
13114;SDS011;6623;52.120;8.660;2022-08-19T15:29:59;3.40;;;1.77;;
13114;SDS011;6623;52.120;8.660;2022-08-19T15:32:25;2.95;;;1.67;;
13114;SDS011;6623;52.120;8.660;2022-08-19T15:34:52;2.40;;;2.20;;
13114;SDS011;6623;52.120;8.660;2022-08-19T15:37:18;2.05;;;1.83;;
13114;SDS011;6623;52.120;8.660;2022-08-19T15:39:47;2.97;;;1.50;;
13114;SDS011;6623;52.120;8.660;2022-08-19T15:42:13;2.85;;;2.05;;
13114;SDS011;6623;52.120;8.660;2022-08-19T15:44:39;2.95;;;1.88;;
13114;SDS011;6623;52.120;8.660;2022-08-19T15:47:05;1.70;;;1.58;;
13114;SDS011;6623;52.120;8.660;2022-08-19T15:49:32;3.17;;;1.60;;
13114;SDS011;6623;52.120;8.660;2022-08-19T15:51:58;2.05;;;1.85;;
13114;SDS011;6623;52.120;8.660;2022-08-19T15:54:25;1.75;;;1.65;;
13114;SDS011;6623;52.120;8.660;2022-08-19T15:56:51;4.63;;;1.65;;
13114;SDS011;6623;52.120;8.660;2022-08-19T15:59:36;3.47;;;1.60;;
13114;SDS011;6623;52.120;8.660;2022-08-19T16:02:25;1.83;;;1.73;;
13114;SDS011;6623;52.120;8.660;2022-08-19T16:05:12;5.97;;;1.80;;
13114;SDS011;6623;52.120;8.660;2022-08-19T16:07:57;2.60;;;1.90;;
13114;SDS011;6623;52.120;8.660;2022-08-19T16:10:23;1.50;;;1.40;;
13114;SDS011;6623;52.120;8.660;2022-08-19T16:12:49;2.00;;;1.70;;
13114;SDS011;6623;52.120;8.660;2022-08-19T16:15:16;2.83;;;1.83;;
13114;SDS011;6623;52.120;8.660;2022-08-19T16:17:42;3.67;;;1.80;;
13114;SDS011;6623;52.120;8.660;2022-08-19T16:20:08;5.40;;;1.83;;
13114;SDS011;6623;52.120;8.660;2022-08-19T16:22:38;2.15;;;1.60;;
13114;SDS011;6623;52.120;8.660;2022-08-19T16:25:05;2.13;;;1.90;;
13114;SDS011;6623;52.120;8.660;2022-08-19T16:27:32;4.60;;;1.60;;
13114;SDS011;6623;52.120;8.660;2022-08-19T16:29:58;3.42;;;1.80;;
13114;SDS011;6623;52.120;8.660;2022-08-19T16:32:24;2.28;;;1.50;;
13114;SDS011;6623;52.120;8.660;2022-08-19T16:34:50;6.05;;;1.75;;
13114;SDS011;6623;52.120;8.660;2022-08-19T16:37:16;3.30;;;1.95;;
13114;SDS011;6623;52.120;8.660;2022-08-19T16:39:43;3.50;;;1.70;;
13114;SDS011;6623;52.120;8.660;2022-08-19T16:42:10;3.30;;;1.90;;
13114;SDS011;6623;52.120;8.660;2022-08-19T16:44:39;3.33;;;1.80;;
13114;SDS011;6623;52.120;8.660;2022-08-19T16:47:05;5.72;;;1.63;;
13114;SDS011;6623;52.120;8.660;2022-08-19T16:49:31;2.45;;;1.67;;
13114;SDS011;6623;52.120;8.660;2022-08-19T16:51:57;2.53;;;1.85;;
13114;SDS011;6623;52.120;8.660;2022-08-19T16:54:26;4.25;;;2.28;;
13114;SDS011;6623;52.120;8.660;2022-08-19T16:56:53;3.28;;;1.92;;
13114;SDS011;6623;52.120;8.660;2022-08-19T16:59:20;3.15;;;1.90;;
13114;SDS011;6623;52.120;8.660;2022-08-19T17:01:48;9.25;;;1.83;;
13114;SDS011;6623;52.120;8.660;2022-08-19T17:04:16;5.25;;;1.60;;
13114;SDS011;6623;52.120;8.660;2022-08-19T17:06:42;2.42;;;2.00;;
13114;SDS011;6623;52.120;8.660;2022-08-19T17:09:08;2.20;;;1.50;;
13114;SDS011;6623;52.120;8.660;2022-08-19T17:11:34;6.00;;;1.95;;
13114;SDS011;6623;52.120;8.660;2022-08-19T17:14:00;3.38;;;1.80;;
13114;SDS011;6623;52.120;8.660;2022-08-19T17:16:29;2.78;;;1.90;;
13114;SDS011;6623;52.120;8.660;2022-08-19T17:18:56;3.78;;;2.05;;